sensor_id;sensor_type;location;lat;lon;timestamp;temperature;humidity
28548;DHT22;15750;49.600;8.746;2022-10-03T00:02:09;20.50;60.30
28548;DHT22;15750;49.600;8.746;2022-10-03T00:05:17;20.50;60.20
28548;DHT22;15750;49.600;8.746;2022-10-03T00:08:25;20.50;60.10
28548;DHT22;15750;49.600;8.746;2022-10-03T00:11:29;20.50;60.10
28548;DHT22;15750;49.600;8.746;2022-10-03T00:14:25;20.50;60.10
28548;DHT22;15750;49.600;8.746;2022-10-03T00:17:22;20.50;60.10
28548;DHT22;15750;49.600;8.746;2022-10-03T00:20:38;20.50;60.10
28548;DHT22;15750;49.600;8.746;2022-10-03T00:23:39;20.50;60.10
28548;DHT22;15750;49.600;8.746;2022-10-03T00:26:49;20.50;60.00
28548;DHT22;15750;49.600;8.746;2022-10-03T00:33:10;20.50;59.90
28548;DHT22;15750;49.600;8.746;2022-10-03T00:36:08;20.50;59.80
28548;DHT22;15750;49.600;8.746;2022-10-03T00:39:17;20.50;59.80
28548;DHT22;15750;49.600;8.746;2022-10-03T00:42:35;20.50;59.80
28548;DHT22;15750;49.600;8.746;2022-10-03T00:49:46;20.50;59.50
28548;DHT22;15750;49.600;8.746;2022-10-03T00:53:05;20.40;59.40
28548;DHT22;15750;49.600;8.746;2022-10-03T00:56:11;20.50;59.50
28548;DHT22;15750;49.600;8.746;2022-10-03T00:59:21;20.50;59.50
28548;DHT22;15750;49.600;8.746;2022-10-03T01:02:31;20.40;59.40
28548;DHT22;15750;49.600;8.746;2022-10-03T01:05:30;20.40;59.30
28548;DHT22;15750;49.600;8.746;2022-10-03T01:08:36;20.40;59.40
28548;DHT22;15750;49.600;8.746;2022-10-03T01:11:44;20.40;59.20
28548;DHT22;15750;49.600;8.746;2022-10-03T01:14:56;20.40;59.20
28548;DHT22;15750;49.600;8.746;2022-10-03T01:18:02;20.40;59.10
28548;DHT22;15750;49.600;8.746;2022-10-03T01:21:03;20.40;59.10
28548;DHT22;15750;49.600;8.746;2022-10-03T01:24:18;20.40;59.00
28548;DHT22;15750;49.600;8.746;2022-10-03T01:27:14;20.40;59.00
28548;DHT22;15750;49.600;8.746;2022-10-03T01:30:05;20.40;59.20
28548;DHT22;15750;49.600;8.746;2022-10-03T01:33:10;20.30;59.50
28548;DHT22;15750;49.600;8.746;2022-10-03T01:36:09;20.40;59.20
28548;DHT22;15750;49.600;8.746;2022-10-03T01:39:04;20.30;59.00
28548;DHT22;15750;49.600;8.746;2022-10-03T01:42:00;20.30;59.00
28548;DHT22;15750;49.600;8.746;2022-10-03T01:45:00;20.30;59.10
28548;DHT22;15750;49.600;8.746;2022-10-03T01:48:01;20.30;59.00
28548;DHT22;15750;49.600;8.746;2022-10-03T01:50:59;20.30;58.90
28548;DHT22;15750;49.600;8.746;2022-10-03T01:54:00;20.30;59.00
28548;DHT22;15750;49.600;8.746;2022-10-03T01:56:58;20.30;58.90
28548;DHT22;15750;49.600;8.746;2022-10-03T01:59:52;20.30;59.00
28548;DHT22;15750;49.600;8.746;2022-10-03T02:02:49;20.30;59.00
28548;DHT22;15750;49.600;8.746;2022-10-03T02:05:50;20.30;59.00
28548;DHT22;15750;49.600;8.746;2022-10-03T02:08:48;20.30;59.00
28548;DHT22;15750;49.600;8.746;2022-10-03T02:11:42;20.20;58.90
28548;DHT22;15750;49.600;8.746;2022-10-03T02:14:50;20.20;59.00
28548;DHT22;15750;49.600;8.746;2022-10-03T02:17:53;20.20;58.90
28548;DHT22;15750;49.600;8.746;2022-10-03T02:20:45;20.20;58.70
28548;DHT22;15750;49.600;8.746;2022-10-03T02:23:40;20.20;58.90
28548;DHT22;15750;49.600;8.746;2022-10-03T02:27:09;20.20;58.60
28548;DHT22;15750;49.600;8.746;2022-10-03T02:30:17;20.20;58.60
28548;DHT22;15750;49.600;8.746;2022-10-03T02:33:41;20.20;58.70
28548;DHT22;15750;49.600;8.746;2022-10-03T02:37:06;20.20;58.70
28548;DHT22;15750;49.600;8.746;2022-10-03T02:44:35;20.10;58.60
28548;DHT22;15750;49.600;8.746;2022-10-03T02:48:01;20.10;58.70
28548;DHT22;15750;49.600;8.746;2022-10-03T02:51:40;20.10;58.60
28548;DHT22;15750;49.600;8.746;2022-10-03T02:54:52;20.10;58.40
28548;DHT22;15750;49.600;8.746;2022-10-03T03:01:46;20.10;58.60
28548;DHT22;15750;49.600;8.746;2022-10-03T03:05:14;20.10;58.60
28548;DHT22;15750;49.600;8.746;2022-10-03T03:08:31;20.10;58.60
28548;DHT22;15750;49.600;8.746;2022-10-03T03:11:47;20.10;58.40
28548;DHT22;15750;49.600;8.746;2022-10-03T03:15:48;20.10;58.10
28548;DHT22;15750;49.600;8.746;2022-10-03T03:19:02;20.00;58.00
28548;DHT22;15750;49.600;8.746;2022-10-03T03:22:00;20.00;58.00
28548;DHT22;15750;49.600;8.746;2022-10-03T03:25:18;20.00;58.10
28548;DHT22;15750;49.600;8.746;2022-10-03T03:28:23;20.00;58.10
28548;DHT22;15750;49.600;8.746;2022-10-03T03:31:24;20.00;57.90
28548;DHT22;15750;49.600;8.746;2022-10-03T03:34:21;19.90;57.90
28548;DHT22;15750;49.600;8.746;2022-10-03T03:37:21;19.90;57.90
28548;DHT22;15750;49.600;8.746;2022-10-03T03:40:34;19.90;57.80
28548;DHT22;15750;49.600;8.746;2022-10-03T03:43:45;19.90;57.80
28548;DHT22;15750;49.600;8.746;2022-10-03T03:46:59;19.80;57.50
28548;DHT22;15750;49.600;8.746;2022-10-03T03:50:11;19.90;57.60
28548;DHT22;15750;49.600;8.746;2022-10-03T03:53:37;19.80;57.70
28548;DHT22;15750;49.600;8.746;2022-10-03T03:57:03;19.80;57.70
28548;DHT22;15750;49.600;8.746;2022-10-03T04:03:24;19.80;57.50
28548;DHT22;15750;49.600;8.746;2022-10-03T04:06:33;19.80;57.50
28548;DHT22;15750;49.600;8.746;2022-10-03T04:09:46;19.80;57.40
28548;DHT22;15750;49.600;8.746;2022-10-03T04:13:06;19.80;57.50
28548;DHT22;15750;49.600;8.746;2022-10-03T04:16:35;19.80;57.40
28548;DHT22;15750;49.600;8.746;2022-10-03T04:19:58;19.80;57.50
28548;DHT22;15750;49.600;8.746;2022-10-03T04:23:11;19.70;57.40
28548;DHT22;15750;49.600;8.746;2022-10-03T04:26:23;19.70;57.40
28548;DHT22;15750;49.600;8.746;2022-10-03T04:29:29;19.70;57.00
28548;DHT22;15750;49.600;8.746;2022-10-03T04:39:40;19.70;57.30
28548;DHT22;15750;49.600;8.746;2022-10-03T04:42:41;19.70;57.30
28548;DHT22;15750;49.600;8.746;2022-10-03T04:45:56;19.70;57.00
28548;DHT22;15750;49.600;8.746;2022-10-03T04:48:59;19.70;57.10
28548;DHT22;15750;49.600;8.746;2022-10-03T04:51:55;19.70;57.10
28548;DHT22;15750;49.600;8.746;2022-10-03T04:54:49;19.70;57.30
28548;DHT22;15750;49.600;8.746;2022-10-03T04:57:46;19.70;57.30
28548;DHT22;15750;49.600;8.746;2022-10-03T05:00:49;19.70;57.30
28548;DHT22;15750;49.600;8.746;2022-10-03T05:03:51;19.70;57.00
28548;DHT22;15750;49.600;8.746;2022-10-03T05:06:47;19.70;57.00
28548;DHT22;15750;49.600;8.746;2022-10-03T05:09:44;19.60;57.00
28548;DHT22;15750;49.600;8.746;2022-10-03T05:12:41;19.60;56.90
28548;DHT22;15750;49.600;8.746;2022-10-03T05:15:40;19.60;56.90
28548;DHT22;15750;49.600;8.746;2022-10-03T05:18:37;19.60;56.80
28548;DHT22;15750;49.600;8.746;2022-10-03T05:21:34;19.60;56.90
28548;DHT22;15750;49.600;8.746;2022-10-03T05:24:30;19.60;56.50
28548;DHT22;15750;49.600;8.746;2022-10-03T05:27:24;19.60;56.70
28548;DHT22;15750;49.600;8.746;2022-10-03T05:30:32;19.60;56.60
28548;DHT22;15750;49.600;8.746;2022-10-03T05:33:39;19.60;56.50
28548;DHT22;15750;49.600;8.746;2022-10-03T05:36:45;19.60;56.60
28548;DHT22;15750;49.600;8.746;2022-10-03T05:39:50;19.60;56.40
28548;DHT22;15750;49.600;8.746;2022-10-03T05:42:59;19.60;56.50
28548;DHT22;15750;49.600;8.746;2022-10-03T05:45:58;19.60;56.20
28548;DHT22;15750;49.600;8.746;2022-10-03T05:48:53;19.60;56.50
28548;DHT22;15750;49.600;8.746;2022-10-03T05:52:03;19.60;56.70
28548;DHT22;15750;49.600;8.746;2022-10-03T05:55:36;19.60;56.10
28548;DHT22;15750;49.600;8.746;2022-10-03T05:59:16;19.50;56.00
28548;DHT22;15750;49.600;8.746;2022-10-03T06:02:51;19.50;56.30
28548;DHT22;15750;49.600;8.746;2022-10-03T06:05:40;19.50;56.20
28548;DHT22;15750;49.600;8.746;2022-10-03T06:08:45;19.50;56.10
28548;DHT22;15750;49.600;8.746;2022-10-03T06:11:54;19.50;56.10
28548;DHT22;15750;49.600;8.746;2022-10-03T06:18:00;19.40;55.80
28548;DHT22;15750;49.600;8.746;2022-10-03T06:21:06;19.40;56.10
28548;DHT22;15750;49.600;8.746;2022-10-03T06:24:13;19.40;56.20
28548;DHT22;15750;49.600;8.746;2022-10-03T06:27:17;19.40;56.10
28548;DHT22;15750;49.600;8.746;2022-10-03T06:33:15;19.40;56.40
28548;DHT22;15750;49.600;8.746;2022-10-03T06:36:48;19.40;56.20
28548;DHT22;15750;49.600;8.746;2022-10-03T06:43:58;19.40;56.30
28548;DHT22;15750;49.600;8.746;2022-10-03T06:47:11;19.40;56.20
28548;DHT22;15750;49.600;8.746;2022-10-03T06:50:26;19.40;56.50
28548;DHT22;15750;49.600;8.746;2022-10-03T06:56:56;19.30;56.50
28548;DHT22;15750;49.600;8.746;2022-10-03T07:00:00;19.30;56.70
28548;DHT22;15750;49.600;8.746;2022-10-03T07:03:25;19.30;56.90
28548;DHT22;15750;49.600;8.746;2022-10-03T07:06:46;19.40;57.00
28548;DHT22;15750;49.600;8.746;2022-10-03T07:10:12;19.40;56.90
28548;DHT22;15750;49.600;8.746;2022-10-03T07:16:47;19.40;57.00
28548;DHT22;15750;49.600;8.746;2022-10-03T07:20:04;19.40;57.10
28548;DHT22;15750;49.600;8.746;2022-10-03T07:23:08;19.40;57.10
28548;DHT22;15750;49.600;8.746;2022-10-03T07:26:45;19.40;57.20
28548;DHT22;15750;49.600;8.746;2022-10-03T07:29:42;19.40;57.30
28548;DHT22;15750;49.600;8.746;2022-10-03T07:32:42;19.50;57.50
28548;DHT22;15750;49.600;8.746;2022-10-03T07:35:49;19.50;57.60
28548;DHT22;15750;49.600;8.746;2022-10-03T07:39:26;19.50;57.70
28548;DHT22;15750;49.600;8.746;2022-10-03T07:42:24;19.60;57.80
28548;DHT22;15750;49.600;8.746;2022-10-03T07:45:29;19.60;57.80
28548;DHT22;15750;49.600;8.746;2022-10-03T07:51:31;19.70;57.80
28548;DHT22;15750;49.600;8.746;2022-10-03T07:54:36;19.70;57.90
28548;DHT22;15750;49.600;8.746;2022-10-03T07:57:48;19.80;57.90
28548;DHT22;15750;49.600;8.746;2022-10-03T08:00:30;19.80;57.70
28548;DHT22;15750;49.600;8.746;2022-10-03T08:03:47;19.80;57.70
28548;DHT22;15750;49.600;8.746;2022-10-03T08:06:34;19.80;57.80
28548;DHT22;15750;49.600;8.746;2022-10-03T08:09:28;19.80;57.70
28548;DHT22;15750;49.600;8.746;2022-10-03T08:15:32;19.90;57.70
28548;DHT22;15750;49.600;8.746;2022-10-03T08:18:35;19.90;57.70
28548;DHT22;15750;49.600;8.746;2022-10-03T08:21:19;19.90;57.80
28548;DHT22;15750;49.600;8.746;2022-10-03T08:24:28;19.90;57.90
28548;DHT22;15750;49.600;8.746;2022-10-03T08:27:27;20.00;58.10
28548;DHT22;15750;49.600;8.746;2022-10-03T08:30:18;20.00;58.10
28548;DHT22;15750;49.600;8.746;2022-10-03T08:32:56;20.00;58.30
28548;DHT22;15750;49.600;8.746;2022-10-03T08:35:40;20.10;58.40
28548;DHT22;15750;49.600;8.746;2022-10-03T08:38:49;20.10;58.60
28548;DHT22;15750;49.600;8.746;2022-10-03T08:48:41;20.40;59.10
28548;DHT22;15750;49.600;8.746;2022-10-03T08:51:58;20.50;59.00
28548;DHT22;15750;49.600;8.746;2022-10-03T09:08:34;21.00;59.30
28548;DHT22;15750;49.600;8.746;2022-10-03T09:18:11;21.40;59.00
28548;DHT22;15750;49.600;8.746;2022-10-03T09:21:32;21.50;58.80
28548;DHT22;15750;49.600;8.746;2022-10-03T09:31:13;22.00;58.10
28548;DHT22;15750;49.600;8.746;2022-10-03T09:34:16;22.20;58.30
28548;DHT22;15750;49.600;8.746;2022-10-03T09:37:37;22.30;57.80
28548;DHT22;15750;49.600;8.746;2022-10-03T09:43:56;22.70;56.60
28548;DHT22;15750;49.600;8.746;2022-10-03T09:47:03;22.80;56.10
28548;DHT22;15750;49.600;8.746;2022-10-03T09:50:23;22.80;55.40
28548;DHT22;15750;49.600;8.746;2022-10-03T09:53:31;22.80;55.30
28548;DHT22;15750;49.600;8.746;2022-10-03T09:56:46;22.80;54.90
28548;DHT22;15750;49.600;8.746;2022-10-03T09:59:55;22.70;54.90
28548;DHT22;15750;49.600;8.746;2022-10-03T10:06:33;22.60;54.80
28548;DHT22;15750;49.600;8.746;2022-10-03T10:09:39;22.50;54.80
28548;DHT22;15750;49.600;8.746;2022-10-03T10:15:56;22.30;55.00
28548;DHT22;15750;49.600;8.746;2022-10-03T10:22:14;22.10;55.40
28548;DHT22;15750;49.600;8.746;2022-10-03T10:29:00;22.00;55.50
28548;DHT22;15750;49.600;8.746;2022-10-03T10:35:41;21.90;55.20
28548;DHT22;15750;49.600;8.746;2022-10-03T10:42:01;21.90;55.20
28548;DHT22;15750;49.600;8.746;2022-10-03T10:52:02;21.70;55.30
28548;DHT22;15750;49.600;8.746;2022-10-03T10:55:38;21.70;55.40
28548;DHT22;15750;49.600;8.746;2022-10-03T11:06:09;21.60;55.60
28548;DHT22;15750;49.600;8.746;2022-10-03T11:09:33;21.50;55.60
28548;DHT22;15750;49.600;8.746;2022-10-03T11:13:00;21.50;55.70
28548;DHT22;15750;49.600;8.746;2022-10-03T11:22:58;21.40;55.80
28548;DHT22;15750;49.600;8.746;2022-10-03T11:39:31;21.30;55.20
28548;DHT22;15750;49.600;8.746;2022-10-03T11:42:16;21.30;55.30
28548;DHT22;15750;49.600;8.746;2022-10-03T11:44:55;21.30;55.40
28548;DHT22;15750;49.600;8.746;2022-10-03T11:47:41;21.30;55.80
28548;DHT22;15750;49.600;8.746;2022-10-03T11:53:37;21.30;55.70
28548;DHT22;15750;49.600;8.746;2022-10-03T11:56:33;21.30;55.70
28548;DHT22;15750;49.600;8.746;2022-10-03T11:59:30;21.40;55.60
28548;DHT22;15750;49.600;8.746;2022-10-03T12:02:13;21.30;55.50
28548;DHT22;15750;49.600;8.746;2022-10-03T12:04:53;21.40;55.60
28548;DHT22;15750;49.600;8.746;2022-10-03T12:07:42;21.30;55.50
28548;DHT22;15750;49.600;8.746;2022-10-03T12:10:40;21.40;55.60
28548;DHT22;15750;49.600;8.746;2022-10-03T12:13:17;21.30;55.60
28548;DHT22;15750;49.600;8.746;2022-10-03T12:15:53;21.30;55.60
28548;DHT22;15750;49.600;8.746;2022-10-03T12:18:30;21.30;55.60
28548;DHT22;15750;49.600;8.746;2022-10-03T12:21:23;21.40;55.50
28548;DHT22;15750;49.600;8.746;2022-10-03T12:24:02;21.40;55.60
28548;DHT22;15750;49.600;8.746;2022-10-03T12:26:46;21.30;55.40
28548;DHT22;15750;49.600;8.746;2022-10-03T12:29:25;21.40;55.40
28548;DHT22;15750;49.600;8.746;2022-10-03T12:32:10;21.30;55.60
28548;DHT22;15750;49.600;8.746;2022-10-03T12:34:49;21.40;55.40
28548;DHT22;15750;49.600;8.746;2022-10-03T12:37:46;21.40;55.20
28548;DHT22;15750;49.600;8.746;2022-10-03T12:40:24;21.30;55.20
28548;DHT22;15750;49.600;8.746;2022-10-03T12:43:04;21.40;55.30
28548;DHT22;15750;49.600;8.746;2022-10-03T12:45:43;21.40;55.20
28548;DHT22;15750;49.600;8.746;2022-10-03T12:48:29;21.40;55.20
28548;DHT22;15750;49.600;8.746;2022-10-03T12:51:37;21.40;55.20
28548;DHT22;15750;49.600;8.746;2022-10-03T12:54:29;21.40;54.30
28548;DHT22;15750;49.600;8.746;2022-10-03T13:00:24;21.40;54.80
28548;DHT22;15750;49.600;8.746;2022-10-03T13:03:18;21.40;55.00
28548;DHT22;15750;49.600;8.746;2022-10-03T13:06:14;21.40;54.50
28548;DHT22;15750;49.600;8.746;2022-10-03T13:09:23;21.40;54.70
28548;DHT22;15750;49.600;8.746;2022-10-03T13:12:02;21.40;55.50
28548;DHT22;15750;49.600;8.746;2022-10-03T13:18:33;21.40;54.70
28548;DHT22;15750;49.600;8.746;2022-10-03T13:21:18;21.50;54.60
28548;DHT22;15750;49.600;8.746;2022-10-03T13:24:21;21.50;54.80
28548;DHT22;15750;49.600;8.746;2022-10-03T13:30:04;21.50;54.90
28548;DHT22;15750;49.600;8.746;2022-10-03T13:32:46;21.50;54.90
28548;DHT22;15750;49.600;8.746;2022-10-03T13:35:33;21.50;55.00
28548;DHT22;15750;49.600;8.746;2022-10-03T13:38:40;21.50;54.90
28548;DHT22;15750;49.600;8.746;2022-10-03T13:41:52;21.50;54.90
28548;DHT22;15750;49.600;8.746;2022-10-03T13:44:42;21.50;54.90
28548;DHT22;15750;49.600;8.746;2022-10-03T13:47:25;21.50;55.00
28548;DHT22;15750;49.600;8.746;2022-10-03T13:50:15;21.50;54.80
28548;DHT22;15750;49.600;8.746;2022-10-03T13:53:05;21.50;54.80
28548;DHT22;15750;49.600;8.746;2022-10-03T13:55:47;21.50;54.90
28548;DHT22;15750;49.600;8.746;2022-10-03T13:58:34;21.50;54.80
28548;DHT22;15750;49.600;8.746;2022-10-03T14:01:40;21.50;54.80
28548;DHT22;15750;49.600;8.746;2022-10-03T14:07:29;21.50;54.60
28548;DHT22;15750;49.600;8.746;2022-10-03T14:10:21;21.50;54.70
28548;DHT22;15750;49.600;8.746;2022-10-03T14:13:08;21.50;55.30
28548;DHT22;15750;49.600;8.746;2022-10-03T14:15:49;21.50;54.60
28548;DHT22;15750;49.600;8.746;2022-10-03T14:18:41;21.50;54.60
28548;DHT22;15750;49.600;8.746;2022-10-03T14:21:34;21.50;54.70
28548;DHT22;15750;49.600;8.746;2022-10-03T14:24:37;21.50;54.50
28548;DHT22;15750;49.600;8.746;2022-10-03T14:27:30;21.50;54.50
28548;DHT22;15750;49.600;8.746;2022-10-03T14:30:15;21.40;54.60
28548;DHT22;15750;49.600;8.746;2022-10-03T14:32:51;21.50;54.70
28548;DHT22;15750;49.600;8.746;2022-10-03T14:35:42;21.40;54.60
28548;DHT22;15750;49.600;8.746;2022-10-03T14:38:50;21.40;54.40
28548;DHT22;15750;49.600;8.746;2022-10-03T14:41:39;21.40;54.40
28548;DHT22;15750;49.600;8.746;2022-10-03T14:44:22;21.40;54.40
28548;DHT22;15750;49.600;8.746;2022-10-03T14:46:57;21.40;54.40
28548;DHT22;15750;49.600;8.746;2022-10-03T14:49:32;21.40;54.60
28548;DHT22;15750;49.600;8.746;2022-10-03T14:52:28;21.40;54.70
28548;DHT22;15750;49.600;8.746;2022-10-03T14:55:12;21.40;54.70
28548;DHT22;15750;49.600;8.746;2022-10-03T14:57:50;21.30;54.70
28548;DHT22;15750;49.600;8.746;2022-10-03T15:00:41;21.30;54.70
28548;DHT22;15750;49.600;8.746;2022-10-03T15:03:21;21.40;54.70
28548;DHT22;15750;49.600;8.746;2022-10-03T15:06:30;21.40;54.70
28548;DHT22;15750;49.600;8.746;2022-10-03T15:09:09;21.40;54.70
28548;DHT22;15750;49.600;8.746;2022-10-03T15:11:50;21.40;54.60
28548;DHT22;15750;49.600;8.746;2022-10-03T15:14:34;21.40;54.70
28548;DHT22;15750;49.600;8.746;2022-10-03T15:17:16;21.40;54.70
28548;DHT22;15750;49.600;8.746;2022-10-03T15:20:05;21.40;54.60
28548;DHT22;15750;49.600;8.746;2022-10-03T15:22:54;21.30;54.70
28548;DHT22;15750;49.600;8.746;2022-10-03T15:25:35;21.30;54.70
28548;DHT22;15750;49.600;8.746;2022-10-03T15:28:12;21.40;54.70
28548;DHT22;15750;49.600;8.746;2022-10-03T15:30:54;21.30;54.70
28548;DHT22;15750;49.600;8.746;2022-10-03T15:33:29;21.30;54.50
28548;DHT22;15750;49.600;8.746;2022-10-03T15:36:09;21.30;54.50
28548;DHT22;15750;49.600;8.746;2022-10-03T15:38:51;21.30;54.40
28548;DHT22;15750;49.600;8.746;2022-10-03T15:41:26;21.30;54.40
28548;DHT22;15750;49.600;8.746;2022-10-03T15:43:58;21.30;54.30
28548;DHT22;15750;49.600;8.746;2022-10-03T15:46:48;21.30;54.30
28548;DHT22;15750;49.600;8.746;2022-10-03T15:49:36;21.30;54.20
28548;DHT22;15750;49.600;8.746;2022-10-03T15:52:15;21.30;54.20
28548;DHT22;15750;49.600;8.746;2022-10-03T15:54:49;21.30;54.20
28548;DHT22;15750;49.600;8.746;2022-10-03T15:57:42;21.30;54.20
28548;DHT22;15750;49.600;8.746;2022-10-03T16:00:26;21.30;54.00
28548;DHT22;15750;49.600;8.746;2022-10-03T16:03:07;21.30;54.10
28548;DHT22;15750;49.600;8.746;2022-10-03T16:05:52;21.30;54.10
28548;DHT22;15750;49.600;8.746;2022-10-03T16:08:27;21.30;54.10
28548;DHT22;15750;49.600;8.746;2022-10-03T16:11:05;21.30;54.20
28548;DHT22;15750;49.600;8.746;2022-10-03T16:14:00;21.30;54.00
28548;DHT22;15750;49.600;8.746;2022-10-03T16:16:46;21.30;54.00
28548;DHT22;15750;49.600;8.746;2022-10-03T16:19:30;21.30;54.00
28548;DHT22;15750;49.600;8.746;2022-10-03T16:22:16;21.30;53.90
28548;DHT22;15750;49.600;8.746;2022-10-03T16:25:00;21.30;53.80
28548;DHT22;15750;49.600;8.746;2022-10-03T16:27:34;21.30;53.80
28548;DHT22;15750;49.600;8.746;2022-10-03T16:30:18;21.30;53.90
28548;DHT22;15750;49.600;8.746;2022-10-03T16:32:59;21.30;53.70
28548;DHT22;15750;49.600;8.746;2022-10-03T16:35:33;21.30;53.80
28548;DHT22;15750;49.600;8.746;2022-10-03T16:38:07;21.20;53.90
28548;DHT22;15750;49.600;8.746;2022-10-03T16:40:54;21.30;54.00
28548;DHT22;15750;49.600;8.746;2022-10-03T16:43:24;21.30;54.00
28548;DHT22;15750;49.600;8.746;2022-10-03T16:45:54;21.30;54.20
28548;DHT22;15750;49.600;8.746;2022-10-03T16:48:28;21.30;54.20
28548;DHT22;15750;49.600;8.746;2022-10-03T16:51:21;21.20;54.00
28548;DHT22;15750;49.600;8.746;2022-10-03T16:53:54;21.20;53.80
28548;DHT22;15750;49.600;8.746;2022-10-03T16:56:26;21.20;53.90
28548;DHT22;15750;49.600;8.746;2022-10-03T16:59:04;21.20;53.90
28548;DHT22;15750;49.600;8.746;2022-10-03T17:01:37;21.20;53.90
28548;DHT22;15750;49.600;8.746;2022-10-03T17:04:21;21.20;53.90
28548;DHT22;15750;49.600;8.746;2022-10-03T17:06:55;21.20;53.90
28548;DHT22;15750;49.600;8.746;2022-10-03T17:09:34;21.20;53.90
28548;DHT22;15750;49.600;8.746;2022-10-03T17:12:06;21.20;53.90
28548;DHT22;15750;49.600;8.746;2022-10-03T17:14:40;21.10;54.00
28548;DHT22;15750;49.600;8.746;2022-10-03T17:17:23;21.20;54.10
28548;DHT22;15750;49.600;8.746;2022-10-03T17:19:59;21.10;53.80
28548;DHT22;15750;49.600;8.746;2022-10-03T17:22:36;21.10;53.90
28548;DHT22;15750;49.600;8.746;2022-10-03T17:25:30;21.10;53.80
28548;DHT22;15750;49.600;8.746;2022-10-03T17:28:06;21.10;53.80
28548;DHT22;15750;49.600;8.746;2022-10-03T17:30:45;21.10;53.80
28548;DHT22;15750;49.600;8.746;2022-10-03T17:33:20;21.10;53.80
28548;DHT22;15750;49.600;8.746;2022-10-03T17:35:59;21.10;54.40
28548;DHT22;15750;49.600;8.746;2022-10-03T17:38:42;21.10;53.80
28548;DHT22;15750;49.600;8.746;2022-10-03T17:41:21;21.00;53.80
28548;DHT22;15750;49.600;8.746;2022-10-03T17:44:07;21.10;53.80
28548;DHT22;15750;49.600;8.746;2022-10-03T17:46:50;21.00;53.80
28548;DHT22;15750;49.600;8.746;2022-10-03T17:49:35;21.00;53.80
28548;DHT22;15750;49.600;8.746;2022-10-03T17:52:13;21.00;53.80
28548;DHT22;15750;49.600;8.746;2022-10-03T17:54:45;21.00;53.80
28548;DHT22;15750;49.600;8.746;2022-10-03T17:57:21;21.00;53.70
28548;DHT22;15750;49.600;8.746;2022-10-03T17:59:55;21.00;53.80
28548;DHT22;15750;49.600;8.746;2022-10-03T18:02:34;21.00;53.80
28548;DHT22;15750;49.600;8.746;2022-10-03T18:05:13;21.00;53.70
28548;DHT22;15750;49.600;8.746;2022-10-03T18:07:45;20.90;53.80
28548;DHT22;15750;49.600;8.746;2022-10-03T18:10:20;20.90;53.80
28548;DHT22;15750;49.600;8.746;2022-10-03T18:12:54;20.90;53.80
28548;DHT22;15750;49.600;8.746;2022-10-03T18:15:40;20.90;53.80
28548;DHT22;15750;49.600;8.746;2022-10-03T18:21:54;20.90;53.60
28548;DHT22;15750;49.600;8.746;2022-10-03T18:24:39;20.90;53.30
28548;DHT22;15750;49.600;8.746;2022-10-03T18:30:45;20.80;53.40
28548;DHT22;15750;49.600;8.746;2022-10-03T18:33:21;20.80;53.40
28548;DHT22;15750;49.600;8.746;2022-10-03T18:35:52;20.80;53.40
28548;DHT22;15750;49.600;8.746;2022-10-03T18:38:22;20.70;53.50
28548;DHT22;15750;49.600;8.746;2022-10-03T18:40:54;20.70;53.60
28548;DHT22;15750;49.600;8.746;2022-10-03T18:43:33;20.70;53.60
28548;DHT22;15750;49.600;8.746;2022-10-03T18:46:14;20.70;53.50
28548;DHT22;15750;49.600;8.746;2022-10-03T18:48:55;20.70;53.50
28548;DHT22;15750;49.600;8.746;2022-10-03T18:51:50;20.70;53.50
28548;DHT22;15750;49.600;8.746;2022-10-03T18:54:29;20.70;53.50
28548;DHT22;15750;49.600;8.746;2022-10-03T18:57:09;20.70;53.50
28548;DHT22;15750;49.600;8.746;2022-10-03T18:59:49;20.60;53.50
28548;DHT22;15750;49.600;8.746;2022-10-03T19:02:25;20.60;53.30
28548;DHT22;15750;49.600;8.746;2022-10-03T19:05:04;20.60;53.40
28548;DHT22;15750;49.600;8.746;2022-10-03T19:07:43;20.60;53.40
28548;DHT22;15750;49.600;8.746;2022-10-03T19:10:32;20.60;53.40
28548;DHT22;15750;49.600;8.746;2022-10-03T19:13:14;20.60;53.30
28548;DHT22;15750;49.600;8.746;2022-10-03T19:16:15;20.60;53.30
28548;DHT22;15750;49.600;8.746;2022-10-03T19:19:07;20.60;53.30
28548;DHT22;15750;49.600;8.746;2022-10-03T19:21:39;20.50;53.20
28548;DHT22;15750;49.600;8.746;2022-10-03T19:24:12;20.50;53.30
28548;DHT22;15750;49.600;8.746;2022-10-03T19:26:47;20.50;53.30
28548;DHT22;15750;49.600;8.746;2022-10-03T19:29:20;20.50;53.30
28548;DHT22;15750;49.600;8.746;2022-10-03T19:31:59;20.50;53.30
28548;DHT22;15750;49.600;8.746;2022-10-03T19:34:35;20.50;53.10
28548;DHT22;15750;49.600;8.746;2022-10-03T19:37:07;20.50;53.10
28548;DHT22;15750;49.600;8.746;2022-10-03T19:39:41;20.50;53.20
28548;DHT22;15750;49.600;8.746;2022-10-03T19:42:22;20.50;53.20
28548;DHT22;15750;49.600;8.746;2022-10-03T19:44:55;20.40;53.10
28548;DHT22;15750;49.600;8.746;2022-10-03T19:47:28;20.40;53.20
28548;DHT22;15750;49.600;8.746;2022-10-03T19:50:03;20.40;53.10
28548;DHT22;15750;49.600;8.746;2022-10-03T19:52:37;20.40;53.10
28548;DHT22;15750;49.600;8.746;2022-10-03T19:55:12;20.40;53.10
28548;DHT22;15750;49.600;8.746;2022-10-03T19:57:44;20.40;53.00
28548;DHT22;15750;49.600;8.746;2022-10-03T20:00:21;20.40;53.10
28548;DHT22;15750;49.600;8.746;2022-10-03T20:02:55;20.40;53.00
28548;DHT22;15750;49.600;8.746;2022-10-03T20:05:52;20.40;52.90
28548;DHT22;15750;49.600;8.746;2022-10-03T20:08:45;20.40;52.70
28548;DHT22;15750;49.600;8.746;2022-10-03T20:11:40;20.30;52.80
28548;DHT22;15750;49.600;8.746;2022-10-03T20:14:33;20.30;52.90
28548;DHT22;15750;49.600;8.746;2022-10-03T20:17:22;20.30;52.80
28548;DHT22;15750;49.600;8.746;2022-10-03T20:20:18;20.30;52.90
28548;DHT22;15750;49.600;8.746;2022-10-03T20:23:10;20.30;52.80
28548;DHT22;15750;49.600;8.746;2022-10-03T20:26:03;20.30;52.70
28548;DHT22;15750;49.600;8.746;2022-10-03T20:32:16;20.20;52.60
28548;DHT22;15750;49.600;8.746;2022-10-03T20:35:05;20.20;52.80
28548;DHT22;15750;49.600;8.746;2022-10-03T20:38:14;20.20;52.80
28548;DHT22;15750;49.600;8.746;2022-10-03T20:41:10;20.20;52.70
28548;DHT22;15750;49.600;8.746;2022-10-03T20:44:07;20.20;52.70
28548;DHT22;15750;49.600;8.746;2022-10-03T20:47:01;20.20;52.70
28548;DHT22;15750;49.600;8.746;2022-10-03T20:49:53;20.10;52.70
28548;DHT22;15750;49.600;8.746;2022-10-03T20:52:50;20.10;52.70
28548;DHT22;15750;49.600;8.746;2022-10-03T20:55:45;20.10;52.60
28548;DHT22;15750;49.600;8.746;2022-10-03T20:58:38;20.10;52.50
28548;DHT22;15750;49.600;8.746;2022-10-03T21:01:32;20.10;52.50
28548;DHT22;15750;49.600;8.746;2022-10-03T21:04:26;20.10;52.60
28548;DHT22;15750;49.600;8.746;2022-10-03T21:07:23;20.10;52.50
28548;DHT22;15750;49.600;8.746;2022-10-03T21:10:23;20.10;52.40
28548;DHT22;15750;49.600;8.746;2022-10-03T21:13:17;20.00;52.30